createdAt,value
2019-01-08T00:02:35.028Z,100285.73
2019-01-08T00:07:37.048Z,100276.30
2019-01-08T00:12:39.135Z,100258.34
2019-01-08T00:17:42.210Z,100254.91
2019-01-08T00:22:44.167Z,100251.27
2019-01-08T00:27:46.061Z,100251.27
2019-01-08T00:32:48.301Z,100231.66
2019-01-08T00:37:50.193Z,100206.85
2019-01-08T00:42:52.124Z,100185.52
2019-01-08T00:47:54.233Z,100178.55
2019-01-08T00:52:56.144Z,100183.50
2019-01-08T00:57:58.259Z,100153.86
2019-01-08T01:03:00.185Z,100149.88
2019-01-08T01:08:02.082Z,100137.83
2019-01-08T01:13:04.703Z,100119.03
2019-01-08T01:18:06.927Z,100105.52
2019-01-08T01:23:09.060Z,100106.36
2019-01-08T01:28:10.973Z,100081.95
2019-01-08T01:33:12.896Z,100070.23
2019-01-08T01:38:14.855Z,100047.47
2019-01-08T01:43:16.815Z,100039.73
2019-01-08T01:48:18.853Z,100020.98
2019-01-08T01:53:20.909Z,100015.81
2019-01-08T01:58:22.816Z,99996.11
2019-01-08T02:03:24.733Z,99972.88
2019-01-08T02:08:26.633Z,99955.84
2019-01-08T02:13:28.585Z,99975.81
2019-01-08T02:18:30.509Z,99959.32
2019-01-08T02:23:32.442Z,99960.95
2019-01-08T02:28:34.353Z,99963.63
2019-01-08T02:33:36.286Z,99943.05
2019-01-08T02:38:38.345Z,99943.34
2019-01-08T02:43:40.393Z,99928.84
2019-01-08T02:48:42.313Z,99920.55
2019-01-08T02:53:44.191Z,99923.00
2019-01-08T02:58:46.209Z,99931.54
2019-01-08T03:03:48.145Z,99918.59
2019-01-08T03:08:50.265Z,99921.58
2019-01-08T03:13:52.229Z,99909.45
2019-01-08T03:18:54.130Z,99920.79
2019-01-08T03:23:56.052Z,99900.66
2019-01-08T03:28:57.962Z,99929.86
2019-01-08T03:33:59.855Z,99866.75
2019-01-08T03:39:01.961Z,99854.67
2019-01-08T03:44:05.245Z,99835.73
2019-01-08T03:49:07.282Z,99812.75
2019-01-08T03:54:09.366Z,99808.59
2019-01-08T03:59:11.398Z,99799.60
2019-01-08T04:04:13.293Z,99794.86
2019-01-08T04:09:15.588Z,99786.28
2019-01-08T04:14:17.523Z,99784.33
2019-01-08T04:19:19.485Z,99787.07
2019-01-08T04:24:21.906Z,99781.50
2019-01-08T04:29:23.861Z,99781.54
2019-01-08T04:34:25.803Z,99769.67
2019-01-08T04:39:27.723Z,99769.67
2019-01-08T04:44:29.835Z,99748.33
2019-01-08T04:49:31.837Z,99738.67
2019-01-08T04:54:33.740Z,99724.45
2019-01-08T04:59:35.676Z,99731.65
2019-01-08T05:04:37.933Z,99713.59
2019-01-08T05:09:40.104Z,99704.61
2019-01-08T05:14:42.815Z,99681.69
2019-01-08T05:19:46.007Z,99669.52
2019-01-08T05:24:49.170Z,99671.09
2019-01-08T05:29:52.085Z,99665.19
2019-01-08T05:34:54.061Z,99647.91
2019-01-08T05:39:55.993Z,99623.11
2019-01-08T05:44:57.949Z,99629.21
2019-01-08T05:49:59.875Z,99618.86
2019-01-08T05:55:01.791Z,99611.45
2019-01-08T06:00:04.394Z,99588.59
2019-01-08T06:05:06.403Z,99577.05
2019-01-08T06:10:08.809Z,99575.31
2019-01-08T06:15:10.814Z,99570.99
2019-01-08T06:20:12.743Z,99537.67
2019-01-08T06:25:14.665Z,99525.08
2019-01-08T06:30:24.546Z,99541.05
2019-01-08T06:35:20.565Z,99528.47
2019-01-08T06:40:22.500Z,99522.09
2019-01-08T06:45:24.540Z,99506.77
2019-01-08T06:50:26.441Z,99511.22
2019-01-08T06:55:28.368Z,99498.52
2019-01-08T07:00:33.385Z,99494.36
2019-01-08T07:05:34.114Z,99494.95
2019-01-08T07:10:36.046Z,99490.59
2019-01-08T07:15:38.025Z,99484.80
2019-01-08T07:20:39.892Z,99470.41
2019-01-08T07:25:42.217Z,99468.08
2019-01-08T07:30:44.504Z,99447.98
2019-01-08T07:35:46.545Z,99439.78
2019-01-08T07:40:48.477Z,99432.62
2019-01-08T07:45:50.495Z,99434.63
2019-01-08T07:50:52.420Z,99434.81
2019-01-08T07:55:54.376Z,99422.92
2019-01-08T08:00:56.327Z,99409.48
2019-01-08T08:05:58.247Z,99400.38
2019-01-08T08:11:00.183Z,99407.43
2019-01-08T08:16:02.247Z,99392.40
2019-01-08T08:21:04.257Z,99377.72
2019-01-08T08:26:06.281Z,99364.28
2019-01-08T08:31:08.239Z,99359.30
2019-01-08T08:36:10.187Z,99362.33
2019-01-08T08:41:12.221Z,99349.84
2019-01-08T08:46:14.321Z,99342.11
2019-01-08T08:51:16.226Z,99339.75
2019-01-08T08:56:18.253Z,99341.08
2019-01-08T09:01:20.259Z,99320.45
2019-01-08T09:06:22.200Z,99310.62
2019-01-08T09:11:24.129Z,99308.80
2019-01-08T09:16:26.064Z,99313.50
2019-01-08T09:21:27.966Z,99311.51
2019-01-08T09:26:29.901Z,99294.06
2019-01-08T09:31:31.875Z,99289.23
2019-01-08T09:36:33.919Z,99276.23
2019-01-08T09:41:35.848Z,99262.73
2019-01-08T09:46:38.147Z,99240.08
2019-01-08T09:51:40.076Z,99240.44
2019-01-08T09:56:42.005Z,99235.79
2019-01-08T10:01:43.956Z,99219.31
2019-01-08T10:06:45.864Z,99201.83
2019-01-08T10:11:47.890Z,99210.83
2019-01-08T10:16:49.879Z,99201.98
2019-01-08T10:21:51.783Z,99185.47
2019-01-08T10:26:54.073Z,99174.06
2019-01-08T10:31:55.973Z,99159.06
2019-01-08T10:36:58.021Z,99133.16
2019-01-08T10:41:59.939Z,99132.45
2019-01-08T10:47:01.882Z,99108.52
2019-01-08T10:52:03.887Z,99116.90
2019-01-08T10:57:06.666Z,99071.98
2019-01-08T11:02:08.570Z,99116.80
2019-01-08T11:07:11.716Z,99107.34
2019-01-08T11:12:13.974Z,99076.38
2019-01-08T11:17:16.037Z,99080.38
2019-01-08T11:22:17.944Z,99061.72
2019-01-08T11:27:19.978Z,99077.39
2019-01-08T11:32:21.876Z,99063.23
2019-01-08T11:37:23.837Z,99057.05
2019-01-08T11:42:25.779Z,99071.87
2019-01-08T11:47:27.780Z,99020.70
2019-01-08T11:52:29.677Z,99035.83
2019-01-08T11:57:31.716Z,99039.51
2019-01-08T12:02:33.643Z,99008.02
2019-01-08T12:07:35.700Z,99006.52
2019-01-08T12:12:37.713Z,99008.34
2019-01-08T12:17:39.689Z,99003.01
2019-01-08T12:22:41.710Z,99003.16
2019-01-08T12:27:43.650Z,98999.79
2019-01-08T12:32:45.565Z,99002.16
2019-01-08T12:37:47.480Z,98991.65
2019-01-08T12:42:49.443Z,98990.16
2019-01-08T12:47:51.387Z,98999.33
2019-01-08T12:52:53.290Z,98989.51
2019-01-08T12:57:55.231Z,98982.33
2019-01-08T13:02:57.141Z,98999.53
2019-01-08T13:07:59.066Z,98993.89
2019-01-08T13:13:02.197Z,98989.55
2019-01-08T13:18:04.224Z,98983.19
2019-01-08T13:23:06.134Z,98982.64
2019-01-08T13:28:08.196Z,99005.25
2019-01-08T13:33:10.201Z,98983.15
2019-01-08T13:38:12.161Z,98991.28
2019-01-08T13:43:14.129Z,98979.14
2019-01-08T13:48:16.062Z,98987.88
2019-01-08T13:53:18.066Z,99007.83
2019-01-08T13:58:19.978Z,99014.18
2019-01-08T14:03:22.527Z,99020.16
2019-01-08T14:08:25.575Z,99024.25
2019-01-08T14:13:27.485Z,99005.84
2019-01-08T14:18:29.436Z,98999.91
2019-01-08T14:23:31.549Z,98997.38
2019-01-08T14:28:33.553Z,98992.53
2019-01-08T14:33:35.571Z,98986.36
2019-01-08T14:38:37.741Z,98992.70
2019-01-08T14:43:46.380Z,98996.34
2019-01-08T14:48:48.341Z,98986.33
2019-01-08T14:53:50.299Z,98983.98
2019-01-08T14:58:53.546Z,98986.52
2019-01-08T15:03:55.443Z,98990.80
2019-01-08T15:08:57.618Z,98992.11
2019-01-08T15:13:59.572Z,98995.45
2019-01-08T15:19:01.530Z,99001.59
2019-01-08T15:24:03.422Z,98999.42
2019-01-08T15:29:05.333Z,98985.86
2019-01-08T15:34:07.394Z,98994.11
2019-01-08T15:39:09.318Z,98986.19
2019-01-08T15:44:15.428Z,98988.91
2019-01-08T15:49:15.126Z,99011.28
2019-01-08T15:54:17.027Z,98980.42
2019-01-08T15:59:18.957Z,98994.13
2019-01-08T16:04:20.889Z,99004.91
2019-01-08T16:09:22.796Z,98986.93
2019-01-08T16:14:24.824Z,98988.13
2019-01-08T16:19:26.929Z,99000.13
2019-01-08T16:24:28.827Z,98991.33
2019-01-08T16:29:30.971Z,98996.42
2019-01-08T16:34:33.326Z,98991.65
2019-01-08T16:39:35.273Z,98995.83
2019-01-08T16:44:37.206Z,98984.17
2019-01-08T16:49:39.159Z,98995.97
2019-01-08T16:54:43.005Z,98985.59
2019-01-08T16:59:46.022Z,98981.73
2019-01-08T17:04:48.024Z,98967.59
2019-01-08T17:09:49.945Z,98975.06
2019-01-08T17:14:52.311Z,98969.86
2019-01-08T17:19:54.427Z,98973.78
2019-01-08T17:24:56.280Z,98984.98
2019-01-08T17:29:59.211Z,98990.98
2019-01-08T17:35:01.307Z,98993.80
2019-01-08T17:40:04.725Z,98988.36
2019-01-08T17:45:08.063Z,98997.57
2019-01-08T17:50:10.170Z,99006.73
2019-01-08T17:55:12.164Z,98991.42
2019-01-08T18:00:14.382Z,98991.42
2019-01-08T18:05:16.335Z,98996.42
2019-01-08T18:10:18.644Z,99003.97
2019-01-08T18:15:20.556Z,98998.45
2019-01-08T18:20:22.613Z,99009.80
2019-01-08T18:25:24.527Z,99010.97
2019-01-08T18:30:26.462Z,99005.95
2019-01-08T18:35:28.653Z,99026.26
2019-01-08T18:40:30.826Z,99026.26
2019-01-08T18:45:32.747Z,99024.75
2019-01-08T18:50:34.684Z,99032.56
2019-01-08T18:55:36.594Z,99032.56
2019-01-08T19:00:38.537Z,99037.20
2019-01-08T19:05:40.473Z,99037.88
2019-01-08T19:10:42.621Z,99049.67
2019-01-08T19:15:44.541Z,99043.31
2019-01-08T19:20:46.494Z,99030.20
2019-01-08T19:25:48.408Z,99045.41
2019-01-08T19:30:50.334Z,99053.80
2019-01-08T19:35:52.298Z,99056.91
2019-01-08T19:40:55.744Z,99043.10
2019-01-08T19:45:57.674Z,99062.92
2019-01-08T19:50:59.572Z,99068.27
2019-01-08T19:56:01.585Z,99052.28
2019-01-08T20:01:04.610Z,99065.84
2019-01-08T20:06:06.662Z,99050.00
2019-01-08T20:11:08.581Z,99045.51
2019-01-08T20:16:10.526Z,99050.50
2019-01-08T20:21:12.569Z,99058.95
2019-01-08T20:26:14.469Z,99049.17
2019-01-08T20:31:16.383Z,99048.98
2019-01-08T20:36:18.497Z,99051.01
2019-01-08T20:41:20.474Z,99057.94
2019-01-08T20:46:22.446Z,99054.77
2019-01-08T20:51:24.345Z,99051.66
2019-01-08T20:56:26.316Z,99061.88
2019-01-08T21:01:28.428Z,99057.23
2019-01-08T21:06:30.446Z,99069.39
2019-01-08T21:11:32.390Z,99067.32
2019-01-08T21:16:34.304Z,99077.16
2019-01-08T21:21:36.200Z,99092.76
2019-01-08T21:26:38.190Z,99093.89
2019-01-08T21:31:40.096Z,99086.86
2019-01-08T21:36:42.123Z,99081.88
2019-01-08T21:41:44.685Z,99087.80
2019-01-08T21:46:47.761Z,99087.95
2019-01-08T21:51:49.672Z,99086.22
2019-01-08T21:56:51.619Z,99092.89
2019-01-08T22:01:53.546Z,99096.02
2019-01-08T22:06:55.665Z,99088.00
2019-01-08T22:11:57.609Z,99107.90
2019-01-08T22:16:59.955Z,99102.16
2019-01-08T22:22:01.908Z,99107.95
2019-01-08T22:27:03.839Z,99116.19
2019-01-08T22:32:05.880Z,99111.72
2019-01-08T22:37:07.780Z,99116.48
2019-01-08T22:42:10.994Z,99116.67
2019-01-08T22:47:12.951Z,99120.64
2019-01-08T22:52:14.839Z,99113.30
2019-01-08T22:57:16.753Z,99121.47
2019-01-08T23:02:18.868Z,99121.85
2019-01-08T23:07:20.785Z,99115.23
2019-01-08T23:12:22.819Z,99110.42
2019-01-08T23:17:24.793Z,99138.66
2019-01-08T23:22:26.802Z,99122.35
2019-01-08T23:27:28.722Z,99119.53
2019-01-08T23:32:30.846Z,99116.63
2019-01-08T23:37:32.784Z,99117.42
2019-01-08T23:42:34.922Z,99114.81
2019-01-08T23:47:36.882Z,99114.77
2019-01-08T23:53:00.493Z,99117.45
2019-01-08T23:58:02.640Z,99116.71
